sensor_id;sensor_type;location;lat;lon;timestamp;P1;durP1;ratioP1;P2;durP2;ratioP2
31760;SDS011;18335;51.486;7.562;2022-07-22T00:00:33;8.10;;;4.85;;
31760;SDS011;18335;51.486;7.562;2022-07-22T00:02:59;7.97;;;4.80;;
31760;SDS011;18335;51.486;7.562;2022-07-22T00:05:26;7.50;;;4.50;;
31760;SDS011;18335;51.486;7.562;2022-07-22T00:07:53;7.03;;;4.50;;
31760;SDS011;18335;51.486;7.562;2022-07-22T00:10:20;7.38;;;3.53;;
31760;SDS011;18335;51.486;7.562;2022-07-22T00:12:48;7.50;;;3.65;;
31760;SDS011;18335;51.486;7.562;2022-07-22T00:15:14;6.45;;;3.65;;
31760;SDS011;18335;51.486;7.562;2022-07-22T00:17:41;5.55;;;3.20;;
31760;SDS011;18335;51.486;7.562;2022-07-22T00:20:09;5.22;;;2.90;;
31760;SDS011;18335;51.486;7.562;2022-07-22T00:22:35;4.82;;;2.55;;
31760;SDS011;18335;51.486;7.562;2022-07-22T00:25:02;4.30;;;2.25;;
31760;SDS011;18335;51.486;7.562;2022-07-22T00:27:30;5.25;;;2.45;;
31760;SDS011;18335;51.486;7.562;2022-07-22T00:29:58;5.90;;;2.40;;
31760;SDS011;18335;51.486;7.562;2022-07-22T00:32:25;3.78;;;1.95;;
31760;SDS011;18335;51.486;7.562;2022-07-22T00:34:52;3.72;;;2.17;;
31760;SDS011;18335;51.486;7.562;2022-07-22T00:37:18;4.63;;;2.05;;
31760;SDS011;18335;51.486;7.562;2022-07-22T00:39:45;4.20;;;1.92;;
31760;SDS011;18335;51.486;7.562;2022-07-22T00:42:13;4.03;;;1.85;;
31760;SDS011;18335;51.486;7.562;2022-07-22T00:44:40;4.38;;;1.73;;
31760;SDS011;18335;51.486;7.562;2022-07-22T00:47:08;4.38;;;2.10;;
31760;SDS011;18335;51.486;7.562;2022-07-22T00:49:35;5.60;;;2.38;;
31760;SDS011;18335;51.486;7.562;2022-07-22T00:52:02;3.70;;;1.85;;
31760;SDS011;18335;51.486;7.562;2022-07-22T00:54:29;4.43;;;2.47;;
31760;SDS011;18335;51.486;7.562;2022-07-22T00:56:56;6.38;;;2.60;;
31760;SDS011;18335;51.486;7.562;2022-07-22T00:59:23;6.63;;;2.55;;
31760;SDS011;18335;51.486;7.562;2022-07-22T01:01:50;4.38;;;2.30;;
31760;SDS011;18335;51.486;7.562;2022-07-22T01:04:18;5.13;;;2.80;;
31760;SDS011;18335;51.486;7.562;2022-07-22T01:06:45;4.88;;;2.30;;
31760;SDS011;18335;51.486;7.562;2022-07-22T01:09:12;5.82;;;2.95;;
31760;SDS011;18335;51.486;7.562;2022-07-22T01:11:40;4.75;;;2.28;;
31760;SDS011;18335;51.486;7.562;2022-07-22T01:14:07;5.32;;;2.03;;
31760;SDS011;18335;51.486;7.562;2022-07-22T01:16:34;4.50;;;2.13;;
31760;SDS011;18335;51.486;7.562;2022-07-22T01:19:01;6.55;;;2.00;;
31760;SDS011;18335;51.486;7.562;2022-07-22T01:21:30;5.07;;;2.53;;
31760;SDS011;18335;51.486;7.562;2022-07-22T01:23:57;4.60;;;1.88;;
31760;SDS011;18335;51.486;7.562;2022-07-22T01:26:24;5.82;;;2.33;;
31760;SDS011;18335;51.486;7.562;2022-07-22T01:28:51;4.47;;;2.00;;
31760;SDS011;18335;51.486;7.562;2022-07-22T01:31:17;5.70;;;2.17;;
31760;SDS011;18335;51.486;7.562;2022-07-22T01:33:44;4.50;;;2.08;;
31760;SDS011;18335;51.486;7.562;2022-07-22T01:36:11;3.03;;;1.90;;
31760;SDS011;18335;51.486;7.562;2022-07-22T01:38:40;4.60;;;2.00;;
31760;SDS011;18335;51.486;7.562;2022-07-22T01:41:07;6.07;;;2.40;;
31760;SDS011;18335;51.486;7.562;2022-07-22T01:43:34;8.32;;;2.40;;
31760;SDS011;18335;51.486;7.562;2022-07-22T01:46:01;6.13;;;2.90;;
31760;SDS011;18335;51.486;7.562;2022-07-22T01:48:29;4.13;;;2.45;;
31760;SDS011;18335;51.486;7.562;2022-07-22T01:50:55;10.55;;;2.85;;
31760;SDS011;18335;51.486;7.562;2022-07-22T01:53:22;7.55;;;3.25;;
31760;SDS011;18335;51.486;7.562;2022-07-22T01:55:51;7.47;;;3.35;;
31760;SDS011;18335;51.486;7.562;2022-07-22T01:58:19;7.60;;;3.00;;
31760;SDS011;18335;51.486;7.562;2022-07-22T02:00:47;9.35;;;3.83;;
31760;SDS011;18335;51.486;7.562;2022-07-22T02:03:14;12.25;;;4.47;;
31760;SDS011;18335;51.486;7.562;2022-07-22T02:05:41;8.70;;;4.15;;
31760;SDS011;18335;51.486;7.562;2022-07-22T02:08:27;8.93;;;4.63;;
31760;SDS011;18335;51.486;7.562;2022-07-22T02:11:10;9.18;;;4.72;;
31760;SDS011;18335;51.486;7.562;2022-07-22T02:13:47;9.48;;;5.10;;
31760;SDS011;18335;51.486;7.562;2022-07-22T02:16:14;10.32;;;5.72;;
31760;SDS011;18335;51.486;7.562;2022-07-22T02:18:41;10.68;;;5.20;;
31760;SDS011;18335;51.486;7.562;2022-07-22T02:21:08;8.15;;;5.20;;
31760;SDS011;18335;51.486;7.562;2022-07-22T02:23:35;8.52;;;5.30;;
31760;SDS011;18335;51.486;7.562;2022-07-22T02:26:03;10.50;;;5.60;;
31760;SDS011;18335;51.486;7.562;2022-07-22T02:28:31;9.77;;;5.18;;
31760;SDS011;18335;51.486;7.562;2022-07-22T02:30:58;9.43;;;5.30;;
31760;SDS011;18335;51.486;7.562;2022-07-22T02:33:25;13.45;;;7.65;;
31760;SDS011;18335;51.486;7.562;2022-07-22T02:35:52;9.75;;;6.85;;
31760;SDS011;18335;51.486;7.562;2022-07-22T02:38:18;12.52;;;7.32;;
31760;SDS011;18335;51.486;7.562;2022-07-22T02:40:45;13.15;;;8.05;;
31760;SDS011;18335;51.486;7.562;2022-07-22T02:43:13;13.75;;;8.15;;
31760;SDS011;18335;51.486;7.562;2022-07-22T02:45:41;11.13;;;7.85;;
31760;SDS011;18335;51.486;7.562;2022-07-22T02:48:08;14.35;;;9.02;;
31760;SDS011;18335;51.486;7.562;2022-07-22T02:50:35;14.00;;;8.50;;
31760;SDS011;18335;51.486;7.562;2022-07-22T02:53:04;10.40;;;7.97;;
31760;SDS011;18335;51.486;7.562;2022-07-22T02:55:36;13.30;;;9.15;;
31760;SDS011;18335;51.486;7.562;2022-07-22T02:58:04;15.23;;;9.50;;
31760;SDS011;18335;51.486;7.562;2022-07-22T03:00:32;13.35;;;8.30;;
31760;SDS011;18335;51.486;7.562;2022-07-22T03:03:00;14.25;;;8.63;;
31760;SDS011;18335;51.486;7.562;2022-07-22T03:05:29;15.07;;;8.13;;
31760;SDS011;18335;51.486;7.562;2022-07-22T03:08:09;13.77;;;9.07;;
31760;SDS011;18335;51.486;7.562;2022-07-22T03:10:37;13.25;;;8.70;;
31760;SDS011;18335;51.486;7.562;2022-07-22T03:13:04;15.13;;;8.40;;
31760;SDS011;18335;51.486;7.562;2022-07-22T03:15:30;15.25;;;7.47;;
31760;SDS011;18335;51.486;7.562;2022-07-22T03:17:57;11.55;;;7.57;;
31760;SDS011;18335;51.486;7.562;2022-07-22T03:20:26;10.13;;;5.90;;
31760;SDS011;18335;51.486;7.562;2022-07-22T03:22:53;11.05;;;4.45;;
31760;SDS011;18335;51.486;7.562;2022-07-22T03:25:20;13.20;;;4.28;;
31760;SDS011;18335;51.486;7.562;2022-07-22T03:27:47;7.65;;;4.57;;
31760;SDS011;18335;51.486;7.562;2022-07-22T03:30:14;7.65;;;3.85;;
31760;SDS011;18335;51.486;7.562;2022-07-22T03:32:41;8.15;;;3.67;;
31760;SDS011;18335;51.486;7.562;2022-07-22T03:35:10;12.32;;;4.13;;
31760;SDS011;18335;51.486;7.562;2022-07-22T03:37:42;9.70;;;3.53;;
31760;SDS011;18335;51.486;7.562;2022-07-22T03:40:09;11.50;;;3.95;;
31760;SDS011;18335;51.486;7.562;2022-07-22T03:42:38;9.25;;;4.05;;
31760;SDS011;18335;51.486;7.562;2022-07-22T03:45:05;7.72;;;3.25;;
31760;SDS011;18335;51.486;7.562;2022-07-22T03:47:37;8.18;;;3.78;;
31760;SDS011;18335;51.486;7.562;2022-07-22T03:50:05;11.10;;;4.00;;
31760;SDS011;18335;51.486;7.562;2022-07-22T03:52:34;7.05;;;3.33;;
31760;SDS011;18335;51.486;7.562;2022-07-22T03:55:06;9.55;;;4.03;;
31760;SDS011;18335;51.486;7.562;2022-07-22T03:57:34;12.63;;;5.03;;
31760;SDS011;18335;51.486;7.562;2022-07-22T04:00:13;11.40;;;4.35;;
31760;SDS011;18335;51.486;7.562;2022-07-22T04:02:41;9.93;;;4.32;;
31760;SDS011;18335;51.486;7.562;2022-07-22T04:05:14;10.90;;;6.15;;
31760;SDS011;18335;51.486;7.562;2022-07-22T04:07:42;12.85;;;5.65;;
31760;SDS011;18335;51.486;7.562;2022-07-22T04:10:10;11.50;;;5.57;;
31760;SDS011;18335;51.486;7.562;2022-07-22T04:12:41;13.48;;;5.47;;
31760;SDS011;18335;51.486;7.562;2022-07-22T04:15:25;9.30;;;4.90;;
31760;SDS011;18335;51.486;7.562;2022-07-22T04:17:52;9.45;;;4.75;;
31760;SDS011;18335;51.486;7.562;2022-07-22T04:20:18;10.73;;;4.93;;
31760;SDS011;18335;51.486;7.562;2022-07-22T04:23:14;13.38;;;5.57;;
31760;SDS011;18335;51.486;7.562;2022-07-22T04:25:42;9.98;;;4.25;;
31760;SDS011;18335;51.486;7.562;2022-07-22T04:28:10;10.80;;;4.13;;
31760;SDS011;18335;51.486;7.562;2022-07-22T04:30:41;12.57;;;4.10;;
31760;SDS011;18335;51.486;7.562;2022-07-22T04:33:08;9.93;;;4.10;;
31760;SDS011;18335;51.486;7.562;2022-07-22T04:35:35;14.27;;;4.28;;
31760;SDS011;18335;51.486;7.562;2022-07-22T04:38:12;8.30;;;3.78;;
31760;SDS011;18335;51.486;7.562;2022-07-22T04:40:50;8.93;;;3.97;;
31760;SDS011;18335;51.486;7.562;2022-07-22T04:43:17;11.85;;;4.13;;
31760;SDS011;18335;51.486;7.562;2022-07-22T04:45:44;12.23;;;3.95;;
31760;SDS011;18335;51.486;7.562;2022-07-22T04:48:11;9.43;;;3.83;;
31760;SDS011;18335;51.486;7.562;2022-07-22T04:50:38;13.48;;;3.55;;
31760;SDS011;18335;51.486;7.562;2022-07-22T04:53:05;14.25;;;4.13;;
31760;SDS011;18335;51.486;7.562;2022-07-22T04:55:31;9.52;;;3.63;;
31760;SDS011;18335;51.486;7.562;2022-07-22T04:58:00;11.57;;;4.13;;
31760;SDS011;18335;51.486;7.562;2022-07-22T05:00:26;9.90;;;3.30;;
31760;SDS011;18335;51.486;7.562;2022-07-22T05:02:55;10.15;;;3.97;;
31760;SDS011;18335;51.486;7.562;2022-07-22T05:05:22;13.52;;;3.60;;
31760;SDS011;18335;51.486;7.562;2022-07-22T05:07:49;11.73;;;3.80;;
31760;SDS011;18335;51.486;7.562;2022-07-22T05:10:16;14.60;;;3.72;;
31760;SDS011;18335;51.486;7.562;2022-07-22T05:12:43;15.18;;;4.63;;
31760;SDS011;18335;51.486;7.562;2022-07-22T05:15:11;9.60;;;4.43;;
31760;SDS011;18335;51.486;7.562;2022-07-22T05:17:39;30.10;;;7.68;;
31760;SDS011;18335;51.486;7.562;2022-07-22T05:20:32;14.35;;;4.30;;
31760;SDS011;18335;51.486;7.562;2022-07-22T05:22:58;10.32;;;4.60;;
31760;SDS011;18335;51.486;7.562;2022-07-22T05:25:28;11.43;;;4.32;;
31760;SDS011;18335;51.486;7.562;2022-07-22T05:27:55;12.82;;;4.47;;
31760;SDS011;18335;51.486;7.562;2022-07-22T05:30:28;11.85;;;4.45;;
31760;SDS011;18335;51.486;7.562;2022-07-22T05:32:56;13.32;;;4.38;;
31760;SDS011;18335;51.486;7.562;2022-07-22T05:35:46;9.95;;;3.70;;
31760;SDS011;18335;51.486;7.562;2022-07-22T05:38:13;13.10;;;4.07;;
31760;SDS011;18335;51.486;7.562;2022-07-22T05:40:40;13.18;;;4.43;;
31760;SDS011;18335;51.486;7.562;2022-07-22T05:43:07;9.88;;;3.70;;
31760;SDS011;18335;51.486;7.562;2022-07-22T05:45:35;11.68;;;3.75;;
31760;SDS011;18335;51.486;7.562;2022-07-22T05:48:02;9.65;;;4.45;;
31760;SDS011;18335;51.486;7.562;2022-07-22T05:50:31;12.45;;;4.00;;
31760;SDS011;18335;51.486;7.562;2022-07-22T05:52:58;8.68;;;3.75;;
31760;SDS011;18335;51.486;7.562;2022-07-22T05:55:25;12.85;;;4.45;;
31760;SDS011;18335;51.486;7.562;2022-07-22T05:57:52;8.73;;;3.83;;
31760;SDS011;18335;51.486;7.562;2022-07-22T06:00:19;10.63;;;4.40;;
31760;SDS011;18335;51.486;7.562;2022-07-22T06:02:47;14.10;;;4.20;;
31760;SDS011;18335;51.486;7.562;2022-07-22T06:05:18;11.55;;;5.10;;
31760;SDS011;18335;51.486;7.562;2022-07-22T06:07:45;10.93;;;5.80;;
31760;SDS011;18335;51.486;7.562;2022-07-22T06:10:19;12.77;;;5.00;;
31760;SDS011;18335;51.486;7.562;2022-07-22T06:12:46;9.00;;;4.22;;
31760;SDS011;18335;51.486;7.562;2022-07-22T06:15:13;10.82;;;4.60;;
31760;SDS011;18335;51.486;7.562;2022-07-22T06:17:40;13.82;;;4.43;;
31760;SDS011;18335;51.486;7.562;2022-07-22T06:20:09;14.23;;;3.80;;
31760;SDS011;18335;51.486;7.562;2022-07-22T06:22:38;10.93;;;3.70;;
31760;SDS011;18335;51.486;7.562;2022-07-22T06:25:05;10.77;;;3.03;;
31760;SDS011;18335;51.486;7.562;2022-07-22T06:27:33;7.68;;;2.65;;
31760;SDS011;18335;51.486;7.562;2022-07-22T06:30:00;11.52;;;2.47;;
31760;SDS011;18335;51.486;7.562;2022-07-22T06:32:28;10.52;;;2.65;;
31760;SDS011;18335;51.486;7.562;2022-07-22T06:34:55;11.68;;;3.08;;
31760;SDS011;18335;51.486;7.562;2022-07-22T06:37:23;11.32;;;2.30;;
31760;SDS011;18335;51.486;7.562;2022-07-22T06:39:50;13.60;;;2.65;;
31760;SDS011;18335;51.486;7.562;2022-07-22T06:42:21;11.02;;;2.40;;
31760;SDS011;18335;51.486;7.562;2022-07-22T06:45:06;11.60;;;2.80;;
31760;SDS011;18335;51.486;7.562;2022-07-22T06:47:54;11.35;;;3.35;;
31760;SDS011;18335;51.486;7.562;2022-07-22T06:50:22;16.02;;;4.70;;
31760;SDS011;18335;51.486;7.562;2022-07-22T06:52:52;11.82;;;2.92;;
31760;SDS011;18335;51.486;7.562;2022-07-22T06:55:19;16.42;;;2.92;;
31760;SDS011;18335;51.486;7.562;2022-07-22T06:58:08;13.55;;;3.42;;
31760;SDS011;18335;51.486;7.562;2022-07-22T07:00:35;13.55;;;3.17;;
31760;SDS011;18335;51.486;7.562;2022-07-22T07:03:14;10.18;;;3.30;;
31760;SDS011;18335;51.486;7.562;2022-07-22T07:05:41;14.73;;;3.22;;
31760;SDS011;18335;51.486;7.562;2022-07-22T07:08:09;10.80;;;3.35;;
31760;SDS011;18335;51.486;7.562;2022-07-22T07:10:37;9.25;;;3.00;;
31760;SDS011;18335;51.486;7.562;2022-07-22T07:13:08;13.30;;;5.03;;
31760;SDS011;18335;51.486;7.562;2022-07-22T07:15:43;6.97;;;2.75;;
31760;SDS011;18335;51.486;7.562;2022-07-22T07:18:09;14.05;;;3.22;;
31760;SDS011;18335;51.486;7.562;2022-07-22T07:20:37;11.55;;;3.42;;
31760;SDS011;18335;51.486;7.562;2022-07-22T07:23:06;12.93;;;3.45;;
31760;SDS011;18335;51.486;7.562;2022-07-22T07:25:38;14.93;;;3.67;;
31760;SDS011;18335;51.486;7.562;2022-07-22T07:28:05;11.27;;;3.47;;
31760;SDS011;18335;51.486;7.562;2022-07-22T07:30:49;10.70;;;3.42;;
31760;SDS011;18335;51.486;7.562;2022-07-22T07:33:17;16.20;;;3.42;;
31760;SDS011;18335;51.486;7.562;2022-07-22T07:35:44;13.32;;;3.13;;
31760;SDS011;18335;51.486;7.562;2022-07-22T07:38:13;10.48;;;3.78;;
31760;SDS011;18335;51.486;7.562;2022-07-22T07:40:42;11.20;;;3.45;;
31760;SDS011;18335;51.486;7.562;2022-07-22T07:43:09;10.80;;;3.38;;
31760;SDS011;18335;51.486;7.562;2022-07-22T07:45:36;8.05;;;3.20;;
31760;SDS011;18335;51.486;7.562;2022-07-22T07:48:03;12.70;;;4.53;;
31760;SDS011;18335;51.486;7.562;2022-07-22T07:50:30;11.65;;;4.00;;
31760;SDS011;18335;51.486;7.562;2022-07-22T07:52:58;9.52;;;3.72;;
31760;SDS011;18335;51.486;7.562;2022-07-22T07:55:26;11.75;;;3.40;;
31760;SDS011;18335;51.486;7.562;2022-07-22T07:57:54;10.13;;;3.30;;
31760;SDS011;18335;51.486;7.562;2022-07-22T08:00:23;15.98;;;4.40;;
31760;SDS011;18335;51.486;7.562;2022-07-22T08:02:54;12.98;;;4.45;;
31760;SDS011;18335;51.486;7.562;2022-07-22T08:05:22;15.75;;;4.93;;
31760;SDS011;18335;51.486;7.562;2022-07-22T08:07:50;12.40;;;4.28;;
31760;SDS011;18335;51.486;7.562;2022-07-22T08:10:18;12.10;;;4.32;;
31760;SDS011;18335;51.486;7.562;2022-07-22T08:13:06;12.80;;;4.90;;
31760;SDS011;18335;51.486;7.562;2022-07-22T08:15:56;15.18;;;6.00;;
31760;SDS011;18335;51.486;7.562;2022-07-22T08:18:24;12.40;;;5.15;;
31760;SDS011;18335;51.486;7.562;2022-07-22T08:20:52;19.55;;;6.05;;
31760;SDS011;18335;51.486;7.562;2022-07-22T08:23:25;11.85;;;5.13;;
31760;SDS011;18335;51.486;7.562;2022-07-22T08:25:51;14.90;;;6.07;;
31760;SDS011;18335;51.486;7.562;2022-07-22T08:28:20;11.98;;;5.43;;
31760;SDS011;18335;51.486;7.562;2022-07-22T08:30:47;11.80;;;4.75;;
31760;SDS011;18335;51.486;7.562;2022-07-22T08:33:14;11.15;;;5.22;;
31760;SDS011;18335;51.486;7.562;2022-07-22T08:35:42;14.20;;;5.43;;
31760;SDS011;18335;51.486;7.562;2022-07-22T08:38:08;11.63;;;4.57;;
31760;SDS011;18335;51.486;7.562;2022-07-22T08:40:35;12.55;;;4.72;;
31760;SDS011;18335;51.486;7.562;2022-07-22T08:43:04;11.18;;;4.57;;
31760;SDS011;18335;51.486;7.562;2022-07-22T08:45:33;11.27;;;4.65;;
31760;SDS011;18335;51.486;7.562;2022-07-22T08:48:00;12.40;;;4.88;;
31760;SDS011;18335;51.486;7.562;2022-07-22T08:50:28;13.93;;;4.55;;
31760;SDS011;18335;51.486;7.562;2022-07-22T08:53:11;13.40;;;4.85;;
31760;SDS011;18335;51.486;7.562;2022-07-22T08:55:41;12.13;;;4.60;;
31760;SDS011;18335;51.486;7.562;2022-07-22T08:58:09;12.85;;;5.18;;
31760;SDS011;18335;51.486;7.562;2022-07-22T09:00:38;13.80;;;6.25;;
31760;SDS011;18335;51.486;7.562;2022-07-22T09:03:15;15.50;;;5.88;;
31760;SDS011;18335;51.486;7.562;2022-07-22T09:05:43;11.48;;;6.28;;
31760;SDS011;18335;51.486;7.562;2022-07-22T09:08:12;10.98;;;5.70;;
31760;SDS011;18335;51.486;7.562;2022-07-22T09:10:54;10.80;;;6.15;;
31760;SDS011;18335;51.486;7.562;2022-07-22T09:13:45;12.20;;;5.93;;
31760;SDS011;18335;51.486;7.562;2022-07-22T09:16:41;11.82;;;5.85;;
31760;SDS011;18335;51.486;7.562;2022-07-22T09:19:33;11.00;;;4.30;;
31760;SDS011;18335;51.486;7.562;2022-07-22T09:22:35;8.95;;;3.20;;
31760;SDS011;18335;51.486;7.562;2022-07-22T09:25:26;9.02;;;3.00;;
31760;SDS011;18335;51.486;7.562;2022-07-22T09:28:15;9.23;;;2.92;;
31760;SDS011;18335;51.486;7.562;2022-07-22T09:31:03;8.88;;;2.97;;
31760;SDS011;18335;51.486;7.562;2022-07-22T09:33:35;9.20;;;3.47;;
31760;SDS011;18335;51.486;7.562;2022-07-22T09:36:22;9.32;;;3.22;;
31760;SDS011;18335;51.486;7.562;2022-07-22T09:38:52;7.60;;;3.13;;
31760;SDS011;18335;51.486;7.562;2022-07-22T09:41:20;9.95;;;3.13;;
31760;SDS011;18335;51.486;7.562;2022-07-22T09:43:48;8.00;;;2.60;;
31760;SDS011;18335;51.486;7.562;2022-07-22T09:46:16;5.40;;;2.17;;
31760;SDS011;18335;51.486;7.562;2022-07-22T09:49:04;6.10;;;3.00;;
31760;SDS011;18335;51.486;7.562;2022-07-22T09:51:40;6.60;;;2.42;;
31760;SDS011;18335;51.486;7.562;2022-07-22T09:54:16;9.93;;;2.70;;
31760;SDS011;18335;51.486;7.562;2022-07-22T09:56:45;8.10;;;2.72;;
31760;SDS011;18335;51.486;7.562;2022-07-22T09:59:16;5.40;;;2.58;;
31760;SDS011;18335;51.486;7.562;2022-07-22T10:01:50;6.07;;;2.25;;
31760;SDS011;18335;51.486;7.562;2022-07-22T10:04:21;7.85;;;2.55;;
31760;SDS011;18335;51.486;7.562;2022-07-22T10:06:50;5.60;;;3.30;;
31760;SDS011;18335;51.486;7.562;2022-07-22T10:09:23;9.98;;;3.92;;
31760;SDS011;18335;51.486;7.562;2022-07-22T10:11:51;8.65;;;3.40;;
31760;SDS011;18335;51.486;7.562;2022-07-22T10:14:21;7.72;;;3.10;;
31760;SDS011;18335;51.486;7.562;2022-07-22T10:16:53;6.05;;;2.53;;
31760;SDS011;18335;51.486;7.562;2022-07-22T10:19:22;7.88;;;2.90;;
31760;SDS011;18335;51.486;7.562;2022-07-22T10:21:49;8.00;;;3.17;;
31760;SDS011;18335;51.486;7.562;2022-07-22T10:24:16;6.32;;;3.03;;
31760;SDS011;18335;51.486;7.562;2022-07-22T10:27:04;10.48;;;3.90;;
31760;SDS011;18335;51.486;7.562;2022-07-22T10:29:32;7.95;;;3.78;;
31760;SDS011;18335;51.486;7.562;2022-07-22T10:35:21;10.07;;;3.88;;
31760;SDS011;18335;51.486;7.562;2022-07-22T10:37:54;7.32;;;3.90;;
31760;SDS011;18335;51.486;7.562;2022-07-22T10:40:23;9.10;;;3.88;;
31760;SDS011;18335;51.486;7.562;2022-07-22T10:43:04;11.68;;;4.30;;
31760;SDS011;18335;51.486;7.562;2022-07-22T10:45:34;8.60;;;4.18;;
31760;SDS011;18335;51.486;7.562;2022-07-22T10:48:05;9.35;;;4.20;;
31760;SDS011;18335;51.486;7.562;2022-07-22T10:53:43;8.35;;;4.45;;
31760;SDS011;18335;51.486;7.562;2022-07-22T10:56:13;14.90;;;4.03;;
31760;SDS011;18335;51.486;7.562;2022-07-22T10:58:42;7.97;;;3.92;;
31760;SDS011;18335;51.486;7.562;2022-07-22T11:01:12;10.20;;;4.80;;
31760;SDS011;18335;51.486;7.562;2022-07-22T11:03:41;11.50;;;4.63;;
31760;SDS011;18335;51.486;7.562;2022-07-22T11:06:18;10.32;;;4.90;;
31760;SDS011;18335;51.486;7.562;2022-07-22T11:08:53;12.63;;;5.25;;
31760;SDS011;18335;51.486;7.562;2022-07-22T11:11:31;10.90;;;5.53;;
31760;SDS011;18335;51.486;7.562;2022-07-22T11:14:15;11.90;;;5.05;;
31760;SDS011;18335;51.486;7.562;2022-07-22T11:16:47;9.32;;;4.60;;
31760;SDS011;18335;51.486;7.562;2022-07-22T11:19:19;10.57;;;5.38;;
31760;SDS011;18335;51.486;7.562;2022-07-22T11:21:50;11.88;;;6.05;;
31760;SDS011;18335;51.486;7.562;2022-07-22T11:24:19;14.77;;;7.53;;
31760;SDS011;18335;51.486;7.562;2022-07-22T11:26:47;13.93;;;7.70;;
31760;SDS011;18335;51.486;7.562;2022-07-22T11:29:16;14.63;;;7.95;;
31760;SDS011;18335;51.486;7.562;2022-07-22T11:31:44;12.68;;;7.47;;
31760;SDS011;18335;51.486;7.562;2022-07-22T11:34:13;13.13;;;7.47;;
31760;SDS011;18335;51.486;7.562;2022-07-22T11:36:43;14.90;;;8.45;;
31760;SDS011;18335;51.486;7.562;2022-07-22T11:39:13;14.70;;;7.93;;
31760;SDS011;18335;51.486;7.562;2022-07-22T11:41:44;14.55;;;8.07;;
31760;SDS011;18335;51.486;7.562;2022-07-22T11:44:10;14.35;;;8.48;;
31760;SDS011;18335;51.486;7.562;2022-07-22T11:46:38;14.32;;;8.05;;
31760;SDS011;18335;51.486;7.562;2022-07-22T11:49:06;15.95;;;8.70;;
31760;SDS011;18335;51.486;7.562;2022-07-22T11:51:35;13.02;;;8.32;;
31760;SDS011;18335;51.486;7.562;2022-07-22T11:54:03;13.23;;;8.15;;
31760;SDS011;18335;51.486;7.562;2022-07-22T11:56:32;14.75;;;9.38;;
31760;SDS011;18335;51.486;7.562;2022-07-22T11:59:00;14.25;;;9.38;;
31760;SDS011;18335;51.486;7.562;2022-07-22T12:01:31;14.00;;;8.45;;
31760;SDS011;18335;51.486;7.562;2022-07-22T12:03:59;14.30;;;8.77;;
31760;SDS011;18335;51.486;7.562;2022-07-22T12:06:27;12.18;;;8.18;;
31760;SDS011;18335;51.486;7.562;2022-07-22T12:08:56;13.63;;;8.93;;
31760;SDS011;18335;51.486;7.562;2022-07-22T12:11:30;15.40;;;9.52;;
31760;SDS011;18335;51.486;7.562;2022-07-22T12:14:04;14.80;;;9.93;;
31760;SDS011;18335;51.486;7.562;2022-07-22T12:16:32;16.75;;;9.15;;
31760;SDS011;18335;51.486;7.562;2022-07-22T12:18:59;21.45;;;10.15;;
31760;SDS011;18335;51.486;7.562;2022-07-22T12:21:29;14.60;;;9.75;;
31760;SDS011;18335;51.486;7.562;2022-07-22T12:23:58;16.58;;;8.77;;
31760;SDS011;18335;51.486;7.562;2022-07-22T12:26:37;13.38;;;8.73;;
31760;SDS011;18335;51.486;7.562;2022-07-22T12:29:21;14.52;;;9.57;;
31760;SDS011;18335;51.486;7.562;2022-07-22T12:31:50;14.80;;;9.45;;
31760;SDS011;18335;51.486;7.562;2022-07-22T12:34:28;13.85;;;9.63;;
31760;SDS011;18335;51.486;7.562;2022-07-22T12:36:57;14.75;;;9.85;;
31760;SDS011;18335;51.486;7.562;2022-07-22T12:39:24;14.60;;;9.73;;
31760;SDS011;18335;51.486;7.562;2022-07-22T12:41:51;16.80;;;10.80;;
31760;SDS011;18335;51.486;7.562;2022-07-22T12:44:22;15.27;;;10.55;;
31760;SDS011;18335;51.486;7.562;2022-07-22T12:46:51;14.90;;;9.60;;
31760;SDS011;18335;51.486;7.562;2022-07-22T12:49:20;17.25;;;10.95;;
31760;SDS011;18335;51.486;7.562;2022-07-22T12:52:07;17.05;;;11.63;;
31760;SDS011;18335;51.486;7.562;2022-07-22T12:54:35;14.13;;;9.75;;
31760;SDS011;18335;51.486;7.562;2022-07-22T12:57:04;15.52;;;9.75;;
31760;SDS011;18335;51.486;7.562;2022-07-22T12:59:32;16.88;;;11.48;;
31760;SDS011;18335;51.486;7.562;2022-07-22T13:01:59;15.77;;;11.40;;
31760;SDS011;18335;51.486;7.562;2022-07-22T13:04:26;16.80;;;11.95;;
31760;SDS011;18335;51.486;7.562;2022-07-22T13:06:53;15.05;;;10.60;;
31760;SDS011;18335;51.486;7.562;2022-07-22T13:09:20;16.17;;;10.70;;
31760;SDS011;18335;51.486;7.562;2022-07-22T13:11:47;17.88;;;11.57;;
31760;SDS011;18335;51.486;7.562;2022-07-22T13:14:14;16.92;;;12.10;;
31760;SDS011;18335;51.486;7.562;2022-07-22T13:16:43;19.52;;;13.02;;
31760;SDS011;18335;51.486;7.562;2022-07-22T13:19:09;20.30;;;14.00;;
31760;SDS011;18335;51.486;7.562;2022-07-22T13:21:36;19.35;;;13.65;;
31760;SDS011;18335;51.486;7.562;2022-07-22T13:24:03;20.77;;;14.10;;
31760;SDS011;18335;51.486;7.562;2022-07-22T13:26:31;19.23;;;14.38;;
31760;SDS011;18335;51.486;7.562;2022-07-22T13:28:57;18.13;;;12.32;;
31760;SDS011;18335;51.486;7.562;2022-07-22T13:31:24;17.30;;;12.70;;
31760;SDS011;18335;51.486;7.562;2022-07-22T13:33:53;18.38;;;13.43;;
31760;SDS011;18335;51.486;7.562;2022-07-22T13:36:20;16.90;;;12.43;;
31760;SDS011;18335;51.486;7.562;2022-07-22T13:38:48;19.13;;;13.98;;
31760;SDS011;18335;51.486;7.562;2022-07-22T13:41:16;17.98;;;13.18;;
31760;SDS011;18335;51.486;7.562;2022-07-22T13:43:43;17.90;;;13.85;;
31760;SDS011;18335;51.486;7.562;2022-07-22T13:46:11;18.42;;;12.07;;
31760;SDS011;18335;51.486;7.562;2022-07-22T13:48:41;17.63;;;11.45;;
31760;SDS011;18335;51.486;7.562;2022-07-22T13:51:09;19.45;;;13.25;;
31760;SDS011;18335;51.486;7.562;2022-07-22T13:53:36;22.65;;;13.45;;
31760;SDS011;18335;51.486;7.562;2022-07-22T13:56:03;22.23;;;13.27;;
31760;SDS011;18335;51.486;7.562;2022-07-22T13:58:31;15.85;;;10.98;;
31760;SDS011;18335;51.486;7.562;2022-07-22T14:00:58;18.23;;;13.02;;
31760;SDS011;18335;51.486;7.562;2022-07-22T14:03:25;16.30;;;11.55;;
31760;SDS011;18335;51.486;7.562;2022-07-22T14:05:52;15.68;;;11.60;;
31760;SDS011;18335;51.486;7.562;2022-07-22T14:08:20;15.05;;;11.30;;
31760;SDS011;18335;51.486;7.562;2022-07-22T14:10:47;18.08;;;12.55;;
31760;SDS011;18335;51.486;7.562;2022-07-22T14:13:13;18.63;;;12.30;;
31760;SDS011;18335;51.486;7.562;2022-07-22T14:15:40;14.85;;;11.80;;
31760;SDS011;18335;51.486;7.562;2022-07-22T14:18:07;17.75;;;11.07;;
31760;SDS011;18335;51.486;7.562;2022-07-22T14:20:34;14.63;;;11.63;;
31760;SDS011;18335;51.486;7.562;2022-07-22T14:23:01;15.07;;;11.07;;
31760;SDS011;18335;51.486;7.562;2022-07-22T14:25:32;14.60;;;10.85;;
31760;SDS011;18335;51.486;7.562;2022-07-22T14:27:59;15.25;;;11.15;;
31760;SDS011;18335;51.486;7.562;2022-07-22T14:30:26;17.33;;;12.40;;
31760;SDS011;18335;51.486;7.562;2022-07-22T14:32:53;19.17;;;11.20;;
31760;SDS011;18335;51.486;7.562;2022-07-22T14:35:20;17.50;;;13.02;;
31760;SDS011;18335;51.486;7.562;2022-07-22T14:37:47;16.65;;;12.00;;
31760;SDS011;18335;51.486;7.562;2022-07-22T14:40:14;16.23;;;11.52;;
31760;SDS011;18335;51.486;7.562;2022-07-22T14:42:42;16.73;;;11.45;;
31760;SDS011;18335;51.486;7.562;2022-07-22T14:45:09;17.35;;;12.05;;
31760;SDS011;18335;51.486;7.562;2022-07-22T14:47:36;19.00;;;12.10;;
31760;SDS011;18335;51.486;7.562;2022-07-22T14:50:04;19.90;;;13.25;;
31760;SDS011;18335;51.486;7.562;2022-07-22T14:52:32;18.58;;;12.68;;
31760;SDS011;18335;51.486;7.562;2022-07-22T14:54:58;17.48;;;11.82;;
31760;SDS011;18335;51.486;7.562;2022-07-22T14:57:25;18.33;;;12.68;;